createdAt,value
2018-08-20T00:01:50.648Z,21.70
2018-08-20T00:04:19.120Z,21.70
2018-08-20T00:06:56.885Z,21.70
2018-08-20T00:09:36.389Z,21.80
2018-08-20T00:12:06.400Z,21.80
2018-08-20T00:14:34.857Z,21.90
2018-08-20T00:17:03.385Z,21.90
2018-08-20T00:19:31.812Z,22.00
2018-08-20T00:22:00.278Z,22.10
2018-08-20T00:24:28.793Z,22.10
2018-08-20T00:26:59.486Z,22.10
2018-08-20T00:29:27.933Z,22.10
2018-08-20T00:31:56.389Z,22.20
2018-08-20T00:34:24.806Z,22.20
2018-08-20T00:36:53.532Z,22.30
2018-08-20T00:39:21.942Z,22.30
2018-08-20T00:41:50.403Z,22.30
2018-08-20T00:44:18.836Z,22.30
2018-08-20T00:46:47.328Z,22.30
2018-08-20T00:49:16.560Z,22.30
2018-08-20T00:51:45.303Z,22.30
2018-08-20T00:54:13.736Z,22.30
2018-08-20T00:56:42.209Z,22.40
2018-08-20T00:59:10.668Z,22.30
2018-08-20T01:01:39.181Z,22.40
2018-08-20T01:04:07.709Z,22.30
2018-08-20T01:06:36.142Z,22.40
2018-08-20T01:09:06.528Z,22.30
2018-08-20T01:11:35.047Z,22.40
2018-08-20T01:14:03.833Z,22.40
2018-08-20T01:16:32.324Z,22.40
2018-08-20T01:19:00.807Z,22.30
2018-08-20T01:21:29.295Z,22.30
2018-08-20T01:23:57.787Z,22.30
2018-08-20T01:26:26.251Z,22.30
2018-08-20T01:28:54.762Z,22.30
2018-08-20T01:31:23.194Z,22.30
2018-08-20T01:33:51.698Z,22.30
2018-08-20T01:36:20.149Z,22.20
2018-08-20T01:38:48.893Z,22.20
2018-08-20T01:41:17.316Z,22.20
2018-08-20T01:43:45.736Z,22.20
2018-08-20T01:46:14.182Z,22.10
2018-08-20T01:48:42.583Z,22.10
2018-08-20T01:51:11.070Z,22.10
2018-08-20T01:53:39.557Z,22.00
2018-08-20T01:56:08.360Z,22.00
2018-08-20T01:58:36.841Z,22.00
2018-08-20T02:01:05.291Z,22.00
2018-08-20T02:03:33.764Z,22.00
2018-08-20T02:06:02.226Z,21.90
2018-08-20T02:08:30.644Z,21.90
2018-08-20T02:10:59.126Z,21.90
2018-08-20T02:13:27.526Z,21.80
2018-08-20T02:15:55.976Z,21.80
2018-08-20T02:18:24.506Z,21.70
2018-08-20T02:20:52.976Z,21.70
2018-08-20T02:23:21.422Z,21.70
2018-08-20T02:25:49.873Z,21.70
2018-08-20T02:28:18.370Z,21.70
2018-08-20T02:30:46.809Z,21.70
2018-08-20T02:33:15.265Z,21.70
2018-08-20T02:35:43.698Z,21.70
2018-08-20T02:38:12.192Z,21.60
2018-08-20T02:40:40.665Z,21.60
2018-08-20T02:43:09.148Z,21.60
2018-08-20T02:45:37.580Z,21.50
2018-08-20T02:48:06.872Z,21.50
2018-08-20T02:50:35.310Z,21.40
2018-08-20T02:53:03.884Z,21.30
2018-08-20T02:55:32.330Z,21.30
2018-08-20T02:58:00.747Z,21.30
2018-08-20T03:00:29.512Z,21.30
2018-08-20T03:03:03.626Z,21.30
2018-08-20T03:05:33.020Z,21.20
2018-08-20T03:08:01.557Z,21.20
2018-08-20T03:10:30.020Z,21.20
2018-08-20T03:12:58.620Z,21.20
2018-08-20T03:15:27.103Z,21.10
2018-08-20T03:17:55.741Z,21.10
2018-08-20T03:20:24.188Z,21.00
2018-08-20T03:22:52.640Z,21.00
2018-08-20T03:25:21.124Z,21.00
2018-08-20T03:27:49.576Z,21.00
2018-08-20T03:30:18.274Z,21.00
2018-08-20T03:32:46.711Z,21.00
2018-08-20T03:35:15.739Z,21.00
2018-08-20T03:37:44.188Z,21.00
2018-08-20T03:40:13.384Z,20.90
2018-08-20T03:42:42.343Z,20.90
2018-08-20T03:45:11.259Z,20.90
2018-08-20T03:47:39.752Z,20.90
2018-08-20T03:50:10.608Z,20.90
2018-08-20T03:52:39.114Z,20.90
2018-08-20T03:55:07.584Z,20.90
2018-08-20T03:57:36.437Z,20.90
2018-08-20T04:13:09.960Z,20.90
2018-08-20T04:15:38.351Z,20.80
2018-08-20T04:18:06.820Z,20.40
2018-08-20T04:20:35.257Z,20.40
2018-08-20T04:23:03.712Z,20.40
2018-08-20T04:25:32.142Z,20.50
2018-08-20T04:28:00.602Z,20.50
2018-08-20T04:30:29.060Z,20.60
2018-08-20T04:32:57.482Z,20.60
2018-08-20T04:35:25.891Z,20.60
2018-08-20T04:37:54.320Z,20.60
2018-08-20T04:40:22.787Z,20.60
2018-08-20T04:42:51.225Z,20.60
2018-08-20T04:45:20.020Z,20.60
2018-08-20T04:47:48.458Z,20.60
2018-08-20T04:50:17.110Z,20.70
2018-08-20T04:52:45.329Z,20.70
2018-08-20T04:55:13.728Z,20.70
2018-08-20T04:57:42.196Z,20.70
2018-08-20T05:00:11.647Z,20.70
2018-08-20T05:02:40.090Z,20.80
2018-08-20T05:05:08.592Z,20.90
2018-08-20T05:07:37.021Z,20.90
2018-08-20T05:10:05.718Z,21.00
2018-08-20T05:12:34.171Z,21.00
2018-08-20T05:15:02.612Z,21.00
2018-08-20T05:17:31.080Z,21.00
2018-08-20T05:19:59.516Z,21.00
2018-08-20T05:22:27.962Z,21.10
2018-08-20T05:24:56.424Z,21.10
2018-08-20T05:27:24.897Z,21.10
2018-08-20T05:29:53.634Z,21.10
2018-08-20T05:32:22.069Z,21.20
2018-08-20T05:34:50.521Z,21.20
2018-08-20T05:37:18.993Z,21.20
2018-08-20T05:39:47.465Z,21.20
2018-08-20T05:42:15.933Z,21.30
2018-08-20T05:44:44.941Z,21.30
2018-08-20T05:47:13.362Z,21.30
2018-08-20T05:49:41.847Z,21.40
2018-08-20T05:52:12.426Z,21.40
2018-08-20T05:54:40.876Z,21.40
2018-08-20T05:57:09.334Z,21.40
2018-08-20T05:59:37.757Z,21.40
2018-08-20T06:02:06.208Z,21.40
2018-08-20T06:04:34.631Z,21.40
2018-08-20T06:07:03.470Z,21.40
2018-08-20T06:09:31.921Z,21.40
2018-08-20T06:12:00.382Z,21.40
2018-08-20T06:14:28.877Z,21.40
2018-08-20T06:16:57.327Z,21.40
2018-08-20T06:19:25.729Z,21.50
2018-08-20T06:21:54.248Z,21.50
2018-08-20T06:24:22.685Z,21.60
2018-08-20T06:26:51.160Z,21.60
2018-08-20T06:29:19.578Z,21.70
2018-08-20T06:31:48.081Z,21.70
2018-08-20T06:34:16.481Z,21.70
2018-08-20T06:36:44.920Z,21.70
2018-08-20T06:39:13.715Z,21.70
2018-08-20T06:41:42.247Z,21.80
2018-08-20T06:44:10.677Z,21.80
2018-08-20T06:46:39.133Z,21.80
2018-08-20T06:49:08.818Z,21.80
2018-08-20T06:51:37.503Z,21.80
2018-08-20T06:54:06.233Z,21.80
2018-08-20T06:56:34.704Z,21.80
2018-08-20T06:59:03.280Z,21.80
2018-08-20T07:01:31.767Z,21.80
2018-08-20T07:04:00.279Z,21.80
2018-08-20T07:06:28.817Z,21.80
2018-08-20T07:08:57.182Z,21.80
2018-08-20T07:11:25.983Z,21.80
2018-08-20T07:13:54.424Z,21.80
2018-08-20T07:16:22.953Z,21.90
2018-08-20T07:18:51.465Z,22.00
2018-08-20T07:21:20.221Z,22.00
2018-08-20T07:23:48.681Z,22.00
2018-08-20T07:26:23.955Z,21.90
2018-08-20T07:28:52.430Z,21.90
2018-08-20T07:31:20.887Z,21.90
2018-08-20T07:33:49.384Z,22.00
2018-08-20T07:36:17.894Z,22.10
2018-08-20T07:38:46.349Z,22.20
2018-08-20T07:41:14.963Z,22.30
2018-08-20T07:43:43.587Z,22.30
2018-08-20T07:46:12.161Z,22.40
2018-08-20T07:48:40.621Z,22.50
2018-08-20T07:51:09.128Z,22.70
2018-08-20T07:53:37.716Z,22.70
2018-08-20T07:56:06.277Z,22.60
2018-08-20T07:58:34.772Z,22.70
2018-08-20T08:01:03.233Z,22.70
2018-08-20T08:03:32.468Z,22.80
2018-08-20T08:06:03.147Z,22.80
2018-08-20T08:08:31.836Z,22.90
2018-08-20T08:11:00.453Z,22.90
2018-08-20T08:13:28.913Z,22.90
2018-08-20T08:15:57.409Z,22.80
2018-08-20T08:18:25.877Z,22.90
2018-08-20T08:20:54.393Z,22.80
2018-08-20T08:23:22.951Z,22.70
2018-08-20T08:25:51.421Z,22.60
2018-08-20T08:28:19.950Z,22.50
2018-08-20T08:30:48.617Z,22.50
2018-08-20T08:33:17.065Z,22.40
2018-08-20T08:35:45.487Z,22.30
2018-08-20T08:51:14.457Z,22.20
2018-08-20T08:53:42.987Z,22.10
2018-08-20T08:56:11.462Z,21.70
2018-08-20T08:58:39.958Z,21.80
2018-08-20T09:01:08.415Z,21.90
2018-08-20T09:03:36.927Z,21.90
2018-08-20T09:06:06.070Z,21.90
2018-08-20T09:08:34.565Z,21.90
2018-08-20T09:11:03.017Z,21.90
2018-08-20T09:13:31.511Z,21.90
2018-08-20T09:15:59.993Z,22.00
2018-08-20T09:18:28.465Z,22.00
2018-08-20T09:21:01.905Z,22.00
2018-08-20T09:23:30.416Z,22.00
2018-08-20T09:25:58.914Z,22.10
2018-08-20T09:28:27.426Z,22.10
2018-08-20T09:30:55.975Z,22.10
2018-08-20T09:33:24.430Z,22.10
2018-08-20T09:35:52.912Z,22.10
2018-08-20T09:38:21.544Z,22.10
2018-08-20T09:40:50.727Z,22.20
2018-08-20T09:43:19.243Z,22.20
2018-08-20T09:45:48.128Z,22.20
2018-08-20T09:48:16.621Z,22.30
2018-08-20T09:50:45.498Z,22.30
2018-08-20T09:53:14.014Z,22.40
2018-08-20T09:55:42.465Z,22.40
2018-08-20T09:58:11.012Z,22.40
2018-08-20T10:00:39.655Z,22.40
2018-08-20T10:03:09.355Z,22.40
2018-08-20T10:05:37.889Z,22.40
2018-08-20T10:08:06.487Z,22.40
2018-08-20T10:10:35.869Z,22.40
2018-08-20T10:13:04.633Z,22.40
2018-08-20T10:15:33.440Z,22.50
2018-08-20T10:18:02.561Z,22.50
2018-08-20T10:20:31.387Z,22.50
2018-08-20T10:22:59.905Z,22.70
2018-08-20T10:25:28.372Z,22.80
2018-08-20T10:27:57.205Z,22.80
2018-08-20T10:30:25.743Z,22.90
2018-08-20T10:32:54.189Z,22.80
2018-08-20T10:35:22.789Z,22.90
2018-08-20T10:37:51.760Z,23.00
2018-08-20T10:40:20.895Z,23.00
2018-08-20T10:42:50.029Z,23.00
2018-08-20T10:45:20.325Z,23.00
2018-08-20T10:47:50.467Z,23.00
2018-08-20T10:50:20.435Z,23.10
2018-08-20T10:52:50.713Z,23.20
2018-08-20T10:55:19.525Z,23.50
2018-08-20T10:57:48.515Z,23.70
2018-08-20T11:00:17.674Z,23.90
2018-08-20T11:02:46.551Z,23.90
2018-08-20T11:05:17.613Z,23.90
2018-08-20T11:07:46.825Z,23.90
2018-08-20T11:10:15.747Z,23.90
2018-08-20T11:12:44.306Z,23.90
2018-08-20T11:15:13.467Z,24.00
2018-08-20T11:17:42.832Z,24.00
2018-08-20T11:20:14.354Z,24.10
2018-08-20T11:22:43.250Z,24.10
2018-08-20T11:25:13.329Z,24.20
2018-08-20T11:27:42.221Z,24.40
2018-08-20T11:30:12.850Z,24.60
2018-08-20T11:32:42.038Z,24.80
2018-08-20T11:35:12.061Z,25.00
2018-08-20T11:37:40.905Z,25.30
2018-08-20T11:40:10.190Z,25.50
2018-08-20T11:42:38.876Z,25.80
2018-08-20T11:45:09.981Z,26.20
2018-08-20T11:47:38.654Z,26.50
2018-08-20T11:50:07.447Z,26.80
2018-08-20T11:52:36.366Z,27.20
2018-08-20T11:55:05.230Z,27.60
2018-08-20T11:57:33.690Z,27.90
2018-08-20T12:00:02.421Z,28.20
2018-08-20T12:02:31.336Z,28.60
2018-08-20T12:05:00.344Z,28.90
2018-08-20T12:07:29.106Z,28.90
2018-08-20T12:09:57.966Z,29.20
2018-08-20T12:12:27.091Z,29.20
2018-08-20T12:14:55.598Z,29.40
2018-08-20T12:17:24.474Z,29.70
2018-08-20T12:19:53.400Z,29.90
2018-08-20T12:22:23.114Z,29.90
2018-08-20T12:24:51.703Z,30.10
2018-08-20T12:27:20.536Z,30.10
2018-08-20T12:29:49.419Z,30.30
2018-08-20T12:32:17.988Z,30.40
2018-08-20T12:34:46.462Z,30.40
2018-08-20T12:37:14.974Z,30.50
2018-08-20T12:39:43.530Z,30.60
2018-08-20T12:42:18.502Z,30.50
2018-08-20T12:44:47.452Z,30.20
2018-08-20T12:47:16.317Z,29.90
2018-08-20T12:49:46.265Z,29.70
2018-08-20T12:52:15.137Z,29.70
2018-08-20T12:54:44.000Z,29.60
2018-08-20T12:57:12.874Z,29.60
2018-08-20T12:59:42.023Z,29.70
2018-08-20T13:02:11.527Z,29.50
2018-08-20T13:04:40.724Z,29.60
2018-08-20T13:07:09.639Z,29.60
2018-08-20T13:09:38.241Z,29.70
2018-08-20T13:12:06.868Z,29.70
2018-08-20T13:14:36.451Z,29.70
2018-08-20T13:17:05.553Z,29.80
2018-08-20T13:19:34.346Z,29.90
2018-08-20T13:22:03.612Z,30.00
2018-08-20T13:24:32.754Z,29.80
2018-08-20T13:27:01.909Z,29.70
2018-08-20T13:29:31.298Z,29.70
2018-08-20T13:32:00.311Z,29.60
2018-08-20T13:34:29.294Z,29.60
2018-08-20T13:36:58.748Z,29.50
2018-08-20T13:39:27.598Z,29.60
2018-08-20T13:41:56.204Z,29.60
2018-08-20T13:44:24.933Z,29.60
2018-08-20T13:46:53.988Z,29.60
2018-08-20T13:49:22.983Z,29.60
2018-08-20T13:51:53.299Z,29.50
2018-08-20T13:54:21.790Z,28.90
2018-08-20T13:56:50.655Z,28.50
2018-08-20T13:59:19.790Z,28.30
2018-08-20T14:01:48.818Z,28.10
2018-08-20T14:04:17.669Z,27.80
2018-08-20T14:06:46.884Z,27.40
2018-08-20T14:09:16.540Z,26.90
2018-08-20T14:11:45.694Z,26.70
2018-08-20T14:14:14.223Z,26.40
2018-08-20T14:16:42.902Z,26.20
2018-08-20T14:19:11.899Z,26.10
2018-08-20T14:21:41.053Z,25.90
2018-08-20T14:24:10.440Z,25.70
2018-08-20T14:26:38.962Z,25.50
2018-08-20T14:29:08.633Z,25.40
2018-08-20T14:31:37.218Z,25.20
2018-08-20T14:34:06.045Z,25.20
2018-08-20T14:36:34.896Z,25.20
2018-08-20T14:39:04.286Z,25.10
2018-08-20T14:41:32.999Z,25.20
2018-08-20T14:44:01.477Z,25.20
2018-08-20T14:46:30.168Z,25.20
2018-08-20T14:48:58.722Z,25.30
2018-08-20T14:51:27.232Z,25.40
2018-08-20T14:53:55.792Z,25.50
2018-08-20T14:56:24.342Z,25.60
2018-08-20T14:58:52.972Z,25.60
2018-08-20T15:01:21.509Z,25.40
2018-08-20T15:03:49.941Z,25.40
2018-08-20T15:06:18.423Z,25.40
2018-08-20T15:08:46.868Z,25.30
2018-08-20T15:11:15.341Z,25.20
2018-08-20T15:13:43.834Z,25.20
2018-08-20T15:16:12.488Z,25.10
2018-08-20T15:18:41.258Z,25.00
2018-08-20T15:21:10.390Z,24.90
2018-08-20T15:23:38.816Z,24.90
2018-08-20T15:26:07.377Z,24.80
2018-08-20T15:28:35.983Z,24.60
2018-08-20T15:31:04.839Z,24.60
2018-08-20T15:33:33.709Z,24.60
2018-08-20T15:36:02.212Z,24.60
2018-08-20T15:38:30.738Z,24.60
2018-08-20T15:40:59.291Z,24.50
2018-08-20T15:43:27.830Z,24.60
2018-08-20T15:45:56.361Z,24.60
2018-08-20T15:48:25.792Z,24.70
2018-08-20T15:50:54.286Z,24.80
2018-08-20T15:53:22.764Z,24.80
2018-08-20T15:55:51.190Z,24.80
2018-08-20T15:58:19.865Z,24.80
2018-08-20T16:00:48.392Z,24.80
2018-08-20T16:03:16.889Z,24.80
2018-08-20T16:05:45.486Z,24.90
2018-08-20T16:08:14.797Z,25.00
2018-08-20T16:10:46.152Z,25.00
2018-08-20T16:13:14.716Z,25.00
2018-08-20T16:15:43.193Z,25.00
2018-08-20T16:18:11.726Z,25.10
2018-08-20T16:20:40.465Z,25.20
2018-08-20T16:23:09.102Z,25.20
2018-08-20T16:25:38.119Z,25.20
2018-08-20T16:28:06.859Z,25.20
2018-08-20T16:30:35.385Z,25.20
2018-08-20T16:33:03.878Z,25.20
2018-08-20T16:35:32.425Z,25.00
2018-08-20T16:38:01.032Z,24.90
2018-08-20T16:40:29.534Z,24.90
2018-08-20T16:42:58.077Z,24.90
2018-08-20T16:45:26.619Z,24.90
2018-08-20T16:47:55.070Z,24.90
2018-08-20T16:50:23.591Z,24.80
2018-08-20T16:52:52.083Z,24.80
2018-08-20T16:55:20.627Z,24.80
2018-08-20T16:57:49.172Z,24.70
2018-08-20T17:00:17.745Z,24.60
2018-08-20T17:02:46.404Z,24.60
2018-08-20T17:05:15.000Z,24.50
2018-08-20T17:07:43.535Z,24.40
2018-08-20T17:10:13.260Z,24.40
2018-08-20T17:12:42.231Z,24.40
2018-08-20T17:15:17.118Z,24.30
2018-08-20T17:17:45.598Z,24.20
2018-08-20T17:20:14.086Z,24.10
2018-08-20T17:22:43.172Z,24.10
2018-08-20T17:25:11.652Z,24.10
2018-08-20T17:27:40.274Z,24.10
2018-08-20T17:30:09.561Z,24.00
2018-08-20T17:32:38.131Z,24.00
2018-08-20T17:35:08.084Z,24.00
2018-08-20T17:37:36.569Z,23.90
2018-08-20T17:40:09.057Z,23.90
2018-08-20T17:42:37.713Z,23.90
2018-08-20T17:45:08.010Z,23.90
2018-08-20T17:47:39.668Z,23.80
2018-08-20T17:50:22.860Z,23.80
2018-08-20T17:52:51.320Z,23.70
2018-08-20T17:55:19.823Z,23.70
2018-08-20T17:57:48.327Z,23.70
2018-08-20T18:00:53.363Z,23.60
2018-08-20T18:03:27.545Z,23.60
2018-08-20T18:05:57.513Z,23.60
2018-08-20T18:08:27.216Z,23.50
2018-08-20T18:10:56.109Z,23.50
2018-08-20T18:13:38.427Z,23.40
2018-08-20T18:16:08.221Z,23.40
2018-08-20T18:18:37.452Z,23.40
2018-08-20T18:21:05.985Z,23.40
2018-08-20T18:23:35.566Z,23.30
2018-08-20T18:26:04.140Z,23.30
2018-08-20T18:28:41.724Z,23.30
2018-08-20T18:31:27.207Z,23.30
2018-08-20T18:33:55.909Z,23.20
2018-08-20T18:36:27.215Z,23.20
2018-08-20T18:38:59.865Z,23.20
2018-08-20T18:42:21.172Z,23.20
2018-08-20T18:44:50.412Z,23.10
2018-08-20T18:47:19.262Z,23.00
2018-08-20T18:49:53.375Z,23.00
2018-08-20T18:52:22.884Z,22.90
2018-08-20T18:54:54.514Z,22.90
2018-08-20T18:57:26.585Z,22.90
2018-08-20T18:59:57.538Z,22.80
2018-08-20T19:02:49.541Z,22.80
2018-08-20T19:05:18.857Z,22.80
2018-08-20T19:07:47.576Z,22.80
2018-08-20T19:10:29.241Z,22.80
2018-08-20T19:12:58.032Z,22.70
2018-08-20T19:15:38.481Z,22.70
2018-08-20T19:18:08.613Z,22.70
2018-08-20T19:20:37.499Z,22.70
2018-08-20T19:23:06.090Z,22.70
2018-08-20T19:25:34.654Z,22.70
2018-08-20T19:28:08.277Z,22.70
2018-08-20T19:30:37.162Z,22.70
2018-08-20T19:33:10.044Z,22.70
2018-08-20T19:35:38.636Z,22.70
2018-08-20T19:38:07.176Z,22.60
2018-08-20T19:40:35.627Z,22.70
2018-08-20T19:43:04.150Z,22.60
2018-08-20T19:45:37.146Z,22.60
2018-08-20T19:48:05.735Z,22.60
2018-08-20T19:50:34.353Z,22.60
2018-08-20T19:53:09.595Z,22.50
2018-08-20T19:55:38.135Z,22.60
2018-08-20T19:58:06.712Z,22.60
2018-08-20T20:00:35.213Z,22.60
2018-08-20T20:03:03.829Z,22.50
2018-08-20T20:05:32.448Z,22.50
2018-08-20T20:08:04.727Z,22.50
2018-08-20T20:10:34.029Z,22.50
2018-08-20T20:13:02.509Z,22.50
2018-08-20T20:15:33.965Z,22.40
2018-08-20T20:18:02.561Z,22.40
2018-08-20T20:20:31.137Z,22.40
2018-08-20T20:22:59.663Z,22.40
2018-08-20T20:25:28.775Z,22.40
2018-08-20T20:27:57.340Z,22.40
2018-08-20T20:30:25.865Z,22.30
2018-08-20T20:32:54.346Z,22.30
2018-08-20T20:35:22.807Z,22.30
2018-08-20T20:37:51.271Z,22.30
2018-08-20T20:40:19.804Z,22.30
2018-08-20T20:42:48.317Z,22.30
2018-08-20T20:45:16.868Z,22.30
2018-08-20T20:47:45.392Z,22.30
2018-08-20T20:50:13.863Z,22.20
2018-08-20T20:52:42.830Z,22.20
2018-08-20T20:55:11.325Z,22.20
2018-08-20T20:57:39.821Z,22.20
2018-08-20T21:00:09.214Z,22.20
2018-08-20T21:02:38.541Z,22.20
2018-08-20T21:05:09.819Z,22.10
2018-08-20T21:07:40.824Z,22.10
2018-08-20T21:10:09.722Z,22.10
2018-08-20T21:12:38.255Z,22.00
2018-08-20T21:15:08.139Z,22.00
2018-08-20T21:17:37.539Z,22.00
2018-08-20T21:20:06.655Z,22.00
2018-08-20T21:22:37.799Z,22.00
2018-08-20T21:25:07.711Z,22.00
2018-08-20T21:27:43.649Z,21.90
2018-08-20T21:30:12.290Z,21.90
2018-08-20T21:32:40.987Z,21.90
2018-08-20T21:35:09.539Z,21.90
2018-08-20T21:37:38.100Z,21.90
2018-08-20T21:40:06.738Z,21.90
2018-08-20T21:42:38.347Z,21.90
2018-08-20T21:45:06.936Z,21.90
2018-08-20T21:47:35.954Z,21.90
2018-08-20T21:50:05.540Z,21.90
2018-08-20T21:52:34.303Z,21.90
2018-08-20T21:55:03.186Z,21.80
2018-08-20T21:57:31.792Z,21.80
2018-08-20T22:00:19.122Z,21.80
2018-08-20T22:02:50.445Z,21.80
2018-08-20T22:05:19.551Z,21.80
2018-08-20T22:07:48.698Z,21.70
2018-08-20T22:10:17.249Z,21.70
2018-08-20T22:12:45.836Z,21.70
2018-08-20T22:15:14.387Z,21.70
2018-08-20T22:17:43.409Z,21.70
2018-08-20T22:20:12.624Z,21.60
2018-08-20T22:22:41.177Z,21.60
2018-08-20T22:25:14.352Z,21.60
2018-08-20T22:27:48.535Z,21.60
2018-08-20T22:30:17.472Z,21.50
2018-08-20T22:32:46.324Z,21.50
2018-08-20T22:35:20.273Z,21.50
2018-08-20T22:37:51.422Z,21.50
2018-08-20T22:40:20.877Z,21.40
2018-08-20T22:42:55.029Z,21.40
2018-08-20T22:45:23.621Z,21.40
2018-08-20T22:47:52.554Z,21.40
2018-08-20T22:50:21.311Z,21.40
2018-08-20T22:52:51.098Z,21.30
2018-08-20T22:55:21.704Z,21.30
2018-08-20T22:58:09.960Z,21.30
2018-08-20T23:00:38.541Z,21.20
2018-08-20T23:03:07.156Z,21.20
2018-08-20T23:05:36.061Z,21.20
2018-08-20T23:08:10.005Z,21.20
2018-08-20T23:10:42.069Z,21.20
2018-08-20T23:13:10.636Z,21.20
2018-08-20T23:15:39.106Z,21.10
2018-08-20T23:18:07.622Z,21.10
2018-08-20T23:20:36.105Z,21.10
2018-08-20T23:23:04.759Z,21.10
2018-08-20T23:25:33.266Z,21.10
2018-08-20T23:28:01.826Z,21.10
2018-08-20T23:30:30.280Z,21.10
2018-08-20T23:32:59.090Z,21.10
2018-08-20T23:35:27.534Z,21.10
2018-08-20T23:37:55.961Z,21.10
2018-08-20T23:40:24.400Z,21.10
2018-08-20T23:42:53.288Z,21.10
2018-08-20T23:45:21.724Z,21.00
2018-08-20T23:47:50.183Z,21.00
2018-08-20T23:50:18.697Z,21.00
2018-08-20T23:52:47.157Z,21.00
2018-08-20T23:55:15.648Z,21.00
2018-08-20T23:57:44.145Z,20.90
